Time;durP1;ratioP1;P1;durP2;ratioP2;P2;SDS_P1;SDS_P2;PMS_P1;PMS_P2;Temp;Humidity;BMP_temperature;BMP_pressure;BME280_temperature;BME280_humidity;BME280_pressure;Samples;Min_cycle;Max_cycle;Signal;HPM_P1;HPM_P2
2021/12/21 00:01:04;;;;;;;3.50;2.47;;;;;;;;;;1742275;81;20941;-61
2021/12/21 00:03:30;;;;;;;3.08;2.25;;;;;;;;;;1714369;82;21507;-61
2021/12/21 00:05:56;;;;;;;3.70;1.62;;;;;;;;;;1744633;81;21310;-61
2021/12/21 00:08:22;;;;;;;3.25;2.87;;;;;;;;;;1741033;81;20870;-61
2021/12/21 00:10:48;;;;;;;5.28;2.95;;;;;;;;;;1740948;81;20958;-61
2021/12/21 00:13:35;;;;;;;7.85;3.92;;;;;;;;;;1713408;82;20988;-61
2021/12/21 00:16:01;;;;;;;6.72;4.90;;;;;;;;;;1702645;83;20903;-61
2021/12/21 00:18:39;;;;;;;10.25;5.53;;;;;;;;;;1711915;83;21207;-61
2021/12/21 00:23:34;;;;;;;7.47;4.42;;;;;;;;;;1767271;79;21492;-61
2021/12/21 00:26:09;;;;;;;7.12;3.80;;;;;;;;;;1747026;81;20972;-61
2021/12/21 00:28:44;;;;;;;4.33;2.33;;;;;;;;;;1759379;81;20975;-61
2021/12/21 00:31:05;;;;;;;3.55;2.17;;;;;;;;;;1762040;81;21134;-61
2021/12/21 00:33:32;;;;;;;3.45;1.98;;;;;;;;;;1775580;80;20989;-61
2021/12/21 00:35:58;;;;;;;1.80;1.00;;;;;;;;;;1774200;80;21015;-61
2021/12/21 00:38:25;;;;;;;1.00;0.93;;;;;;;;;;1772228;80;20934;-61
2021/12/21 00:40:51;;;;;;;1.00;0.80;;;;;;;;;;1776942;80;21440;-61
2021/12/21 00:43:17;;;;;;;1.07;0.80;;;;;;;;;;1781921;79;21150;-62
2021/12/21 00:45:43;;;;;;;1.98;1.07;;;;;;;;;;1771017;79;20843;-62
2021/12/21 00:48:09;;;;;;;2.42;1.07;;;;;;;;;;1774220;80;20928;-62
2021/12/21 00:50:37;;;;;;;1.77;1.20;;;;;;;;;;1724399;81;21520;-62
2021/12/21 00:53:04;;;;;;;1.42;1.20;;;;;;;;;;1726200;81;20936;-62
2021/12/21 00:55:31;;;;;;;1.37;1.12;;;;;;;;;;1766800;79;21207;-62
2021/12/21 00:57:58;;;;;;;1.80;1.30;;;;;;;;;;1772317;80;20964;-61
2021/12/21 01:00:24;;;;;;;2.30;1.50;;;;;;;;;;1776771;79;21412;-61
2021/12/21 01:02:50;;;;;;;1.50;1.30;;;;;;;;;;1776620;79;20938;-61
2021/12/21 01:05:29;;;;;;;2.20;1.47;;;;;;;;;;1766000;80;20965;-60
2021/12/21 01:07:53;;;;;;;1.85;1.10;;;;;;;;;;1777548;79;21145;-61
2021/12/21 01:13:09;;;;;;;2.35;1.00;;;;;;;;;;1777688;80;20979;-62
2021/12/21 01:15:36;;;;;;;1.15;1.00;;;;;;;;;;1774074;79;21483;-61
2021/12/21 01:17:58;;;;;;;0.90;0.90;;;;;;;;;;1785200;79;20871;-61
2021/12/21 01:20:32;;;;;;;1.12;1.02;;;;;;;;;;1774003;80;21992;-61
2021/12/21 01:25:49;;;;;;;2.30;1.17;;;;;;;;;;1760961;80;20943;-61
2021/12/21 01:28:24;;;;;;;2.47;1.37;;;;;;;;;;1764500;80;21485;-61
2021/12/21 01:33:34;;;;;;;2.85;1.10;;;;;;;;;;1757040;80;21057;-61
2021/12/21 01:35:46;;;;;;;1.80;0.98;;;;;;;;;;1753138;80;20934;-61
2021/12/21 01:38:23;;;;;;;2.77;1.20;;;;;;;;;;1758658;80;20896;-61
2021/12/21 01:40:48;;;;;;;1.57;0.90;;;;;;;;;;1762910;80;21058;-61
2021/12/21 01:51:09;;;;;;;3.57;2.40;;;;;;;;;;1759634;80;21507;-60
2021/12/21 01:53:36;;;;;;;5.30;2.70;;;;;;;;;;1769282;80;20879;-61
2021/12/21 01:56:03;;;;;;;4.35;3.00;;;;;;;;;;1758514;81;21044;-61
2021/12/21 01:58:29;;;;;;;2.95;2.22;;;;;;;;;;1761953;80;21139;-61
2021/12/21 02:00:55;;;;;;;3.65;2.05;;;;;;;;;;1758685;80;20951;-61
2021/12/21 02:03:21;;;;;;;3.42;2.33;;;;;;;;;;1757824;80;21456;-61
2021/12/21 02:05:47;;;;;;;3.02;1.85;;;;;;;;;;1761661;80;21009;-61
2021/12/21 02:08:15;;;;;;;6.85;2.75;;;;;;;;;;1760335;80;20878;-61
2021/12/21 02:10:41;;;;;;;3.00;2.60;;;;;;;;;;1759160;80;21084;-61
2021/12/21 02:13:07;;;;;;;3.72;3.22;;;;;;;;;;1763231;80;21009;-61
2021/12/21 02:15:35;;;;;;;3.98;3.22;;;;;;;;;;1755478;80;20942;-61
2021/12/21 02:20:54;;;;;;;2.00;1.47;;;;;;;;;;1757214;80;20982;-60
2021/12/21 02:23:23;;;;;;;4.90;2.00;;;;;;;;;;1775298;80;21162;-62
2021/12/21 02:30:58;;;;;;;6.05;3.85;;;;;;;;;;1795729;78;21055;-60
2021/12/21 02:33:25;;;;;;;8.48;5.30;;;;;;;;;;1798540;78;20883;-62
2021/12/21 02:35:52;;;;;;;6.62;5.33;;;;;;;;;;1770240;79;21072;-62
2021/12/21 02:38:18;;;;;;;7.40;4.80;;;;;;;;;;1806165;78;21460;-62
2021/12/21 02:40:45;;;;;;;5.08;3.72;;;;;;;;;;1805760;78;20894;-62
2021/12/21 02:43:13;;;;;;;7.05;4.95;;;;;;;;;;1808933;78;20926;-62
2021/12/21 02:45:40;;;;;;;8.35;5.22;;;;;;;;;;1801420;78;20993;-62
2021/12/21 02:48:06;;;;;;;7.87;5.10;;;;;;;;;;1806773;78;21128;-61
2021/12/21 02:50:32;;;;;;;6.62;4.62;;;;;;;;;;1806379;78;20867;-62
2021/12/21 02:52:59;;;;;;;8.55;5.05;;;;;;;;;;1766939;80;20919;-61
2021/12/21 02:55:26;;;;;;;6.78;4.30;;;;;;;;;;1802774;78;20895;-62
2021/12/21 02:57:52;;;;;;;6.20;4.15;;;;;;;;;;1768886;80;21396;-62
2021/12/21 03:00:19;;;;;;;5.17;4.05;;;;;;;;;;1805693;78;21144;-62
2021/12/21 03:02:46;;;;;;;6.45;3.95;;;;;;;;;;1807631;78;20934;-60
2021/12/21 03:05:12;;;;;;;8.43;6.08;;;;;;;;;;1803711;78;20910;-61
2021/12/21 03:10:25;;;;;;;11.53;7.08;;;;;;;;;;1804739;78;20874;-60
2021/12/21 03:15:25;;;;;;;12.25;9.23;;;;;;;;;;1809953;78;20965;-60
2021/12/21 03:17:53;;;;;;;8.95;6.55;;;;;;;;;;1806835;78;21411;-61
2021/12/21 03:20:20;;;;;;;7.58;6.15;;;;;;;;;;1800565;78;20957;-60
2021/12/21 03:22:48;;;;;;;9.48;6.55;;;;;;;;;;1808318;78;20941;-61
2021/12/21 03:25:16;;;;;;;13.00;9.35;;;;;;;;;;1803094;78;20891;-61
2021/12/21 03:27:43;;;;;;;16.75;10.98;;;;;;;;;;1799435;78;20941;-61
2021/12/21 03:30:13;;;;;;;11.60;8.80;;;;;;;;;;1801804;78;20950;-61
2021/12/21 03:32:39;;;;;;;4.85;3.75;;;;;;;;;;1805631;78;21458;-61
2021/12/21 03:35:06;;;;;;;4.30;2.35;;;;;;;;;;1804992;78;20980;-60
2021/12/21 03:37:32;;;;;;;2.08;1.57;;;;;;;;;;1802747;78;21152;-61
2021/12/21 03:40:01;;;;;;;2.42;1.40;;;;;;;;;;1808161;78;20871;-61
2021/12/21 03:42:27;;;;;;;1.75;1.40;;;;;;;;;;1775900;80;20906;-61
2021/12/21 03:44:53;;;;;;;1.45;1.22;;;;;;;;;;1805705;78;20933;-61
2021/12/21 03:47:22;;;;;;;2.22;1.62;;;;;;;;;;1766043;80;21500;-61
2021/12/21 03:49:54;;;;;;;2.20;1.70;;;;;;;;;;1805940;78;21557;-62
2021/12/21 03:52:20;;;;;;;4.83;2.17;;;;;;;;;;1764692;80;20978;-60
2021/12/21 03:54:49;;;;;;;3.70;2.30;;;;;;;;;;1807824;78;21415;-61
2021/12/21 03:57:15;;;;;;;4.83;2.00;;;;;;;;;;1764190;80;20938;-62
2021/12/21 03:59:42;;;;;;;5.85;2.95;;;;;;;;;;1819065;78;20941;-61
2021/12/21 04:02:11;;;;;;;4.22;2.90;;;;;;;;;;1807340;78;22556;-61
2021/12/21 04:04:39;;;;;;;7.60;3.72;;;;;;;;;;1773258;79;20954;-60
2021/12/21 04:07:05;;;;;;;9.00;5.80;;;;;;;;;;1808776;78;21544;-61
2021/12/21 04:09:33;;;;;;;10.03;6.40;;;;;;;;;;1811441;78;21032;-60
2021/12/21 04:12:00;;;;;;;11.08;5.37;;;;;;;;;;1807056;78;21555;-61
2021/12/21 04:14:29;;;;;;;6.05;4.65;;;;;;;;;;1767917;80;21971;-61
2021/12/21 04:16:55;;;;;;;6.10;3.52;;;;;;;;;;1812729;78;21520;-60
2021/12/21 04:19:22;;;;;;;7.22;3.77;;;;;;;;;;1801749;78;21020;-60
2021/12/21 04:21:48;;;;;;;7.25;3.83;;;;;;;;;;1770824;80;20951;-60
2021/12/21 04:24:15;;;;;;;4.75;3.55;;;;;;;;;;1807368;78;20862;-60
2021/12/21 04:26:42;;;;;;;5.90;4.33;;;;;;;;;;1802376;78;21143;-60
2021/12/21 04:29:08;;;;;;;3.80;2.08;;;;;;;;;;1799872;78;21938;-60
2021/12/21 04:31:34;;;;;;;2.22;1.40;;;;;;;;;;1805486;78;21696;-60
2021/12/21 04:34:00;;;;;;;0.93;0.85;;;;;;;;;;1807451;78;20957;-60
2021/12/21 04:36:26;;;;;;;1.05;0.88;;;;;;;;;;1804833;78;21396;-61
2021/12/21 04:38:53;;;;;;;1.82;0.82;;;;;;;;;;1772273;80;21114;-61
2021/12/21 04:41:24;;;;;;;1.30;1.02;;;;;;;;;;1796621;78;21492;-61
2021/12/21 04:43:51;;;;;;;2.05;1.75;;;;;;;;;;1775446;80;21492;-61
2021/12/21 04:46:17;;;;;;;2.52;1.92;;;;;;;;;;1799703;78;21077;-61
2021/12/21 04:48:43;;;;;;;2.30;1.95;;;;;;;;;;1804514;78;20882;-61
2021/12/21 04:51:09;;;;;;;2.45;2.15;;;;;;;;;;1805176;78;23343;-60
2021/12/21 04:53:35;;;;;;;1.85;1.42;;;;;;;;;;1767862;80;20949;-61
2021/12/21 04:56:02;;;;;;;2.45;2.25;;;;;;;;;;1772245;80;20931;-60
2021/12/21 04:58:29;;;;;;;3.00;2.33;;;;;;;;;;1801675;78;21053;-60
2021/12/21 05:00:55;;;;;;;2.05;1.67;;;;;;;;;;1800911;78;20994;-60
2021/12/21 05:03:21;;;;;;;4.03;2.83;;;;;;;;;;1799113;78;21090;-60
2021/12/21 05:05:49;;;;;;;4.97;3.70;;;;;;;;;;1779519;79;20953;-60
2021/12/21 05:08:22;;;;;;;3.00;2.52;;;;;;;;;;1812173;78;20910;-60
2021/12/21 05:10:49;;;;;;;4.42;3.30;;;;;;;;;;1801930;78;20938;-61
2021/12/21 05:13:16;;;;;;;4.95;3.35;;;;;;;;;;1804858;78;21358;-60
2021/12/21 05:15:42;;;;;;;3.25;2.90;;;;;;;;;;1802769;78;21488;-61
2021/12/21 05:18:11;;;;;;;3.83;2.50;;;;;;;;;;1803712;78;21530;-61
2021/12/21 05:20:38;;;;;;;3.50;2.02;;;;;;;;;;1803428;78;21026;-60
2021/12/21 05:23:04;;;;;;;3.45;2.50;;;;;;;;;;1810916;78;20863;-60
2021/12/21 05:25:31;;;;;;;3.27;2.92;;;;;;;;;;1812784;78;20969;-60
2021/12/21 05:27:57;;;;;;;4.95;3.58;;;;;;;;;;1808316;78;22272;-59
2021/12/21 05:30:23;;;;;;;4.90;4.15;;;;;;;;;;1762569;80;20927;-62
2021/12/21 05:32:50;;;;;;;4.12;3.20;;;;;;;;;;1811433;78;20977;-63
2021/12/21 05:35:17;;;;;;;2.62;2.42;;;;;;;;;;1814512;78;20906;-62
2021/12/21 05:37:43;;;;;;;2.72;2.22;;;;;;;;;;1812146;78;20847;-62
2021/12/21 05:40:14;;;;;;;3.77;2.00;;;;;;;;;;1808080;78;22323;-62
2021/12/21 05:42:39;;;;;;;2.10;1.75;;;;;;;;;;1769329;80;20934;-62
2021/12/21 05:45:06;;;;;;;1.55;1.10;;;;;;;;;;1802849;78;20945;-62
2021/12/21 05:47:34;;;;;;;5.62;1.55;;;;;;;;;;1799321;78;21101;-62
2021/12/21 05:50:00;;;;;;;1.60;1.00;;;;;;;;;;1776243;79;20977;-61
2021/12/21 05:52:26;;;;;;;2.83;1.42;;;;;;;;;;1772698;80;21153;-61
2021/12/21 05:54:52;;;;;;;2.92;2.40;;;;;;;;;;1801778;78;21405;-62
2021/12/21 05:57:18;;;;;;;6.35;4.45;;;;;;;;;;1810382;78;20977;-63
2021/12/21 05:59:44;;;;;;;5.20;2.60;;;;;;;;;;1804775;78;20918;-61
2021/12/21 06:02:10;;;;;;;2.08;1.82;;;;;;;;;;1810907;78;20898;-68
2021/12/21 06:04:36;;;;;;;1.25;1.15;;;;;;;;;;1766679;79;21224;-61
2021/12/21 06:07:04;;;;;;;1.40;1.27;;;;;;;;;;1811308;78;20889;-59
2021/12/21 06:09:31;;;;;;;2.75;1.62;;;;;;;;;;1819301;78;20994;-62
2021/12/21 06:12:26;;;;;;;2.40;2.17;;;;;;;;;;1772830;80;21016;-59
2021/12/21 06:23:06;;;;;;;4.17;2.93;;;;;;;;;;1805358;78;21001;-61
2021/12/21 06:27:48;;;;;;;3.15;1.45;;;;;;;;;;1799356;78;20969;-61
2021/12/21 06:30:15;;;;;;;0.85;0.60;;;;;;;;;;1803102;78;21933;-61
2021/12/21 06:32:41;;;;;;;2.45;0.90;;;;;;;;;;1803200;78;20973;-61
2021/12/21 06:35:08;;;;;;;1.07;0.90;;;;;;;;;;1804625;78;21024;-61
2021/12/21 06:37:34;;;;;;;2.27;1.47;;;;;;;;;;1799447;78;20934;-61
2021/12/21 06:40:01;;;;;;;2.00;1.52;;;;;;;;;;1800960;78;20883;-61
2021/12/21 06:42:29;;;;;;;2.52;1.30;;;;;;;;;;1802503;78;21138;-62
2021/12/21 06:44:59;;;;;;;1.20;1.10;;;;;;;;;;1802733;78;20981;-61
2021/12/21 06:52:55;;;;;;;1.60;0.65;;;;;;;;;;1815515;78;20996;-61
2021/12/21 06:55:21;;;;;;;3.20;1.00;;;;;;;;;;1802953;78;23291;-61
2021/12/21 06:57:47;;;;;;;2.62;0.98;;;;;;;;;;1800247;78;21008;-61
2021/12/21 07:00:15;;;;;;;1.17;0.90;;;;;;;;;;1811643;78;21028;-61
2021/12/21 07:02:41;;;;;;;0.95;0.70;;;;;;;;;;1773524;80;21682;-61
2021/12/21 07:05:08;;;;;;;1.30;0.90;;;;;;;;;;1806517;78;21028;-60
2021/12/21 07:07:35;;;;;;;1.20;0.90;;;;;;;;;;1796557;78;21131;-59
2021/12/21 07:10:07;;;;;;;1.10;0.90;;;;;;;;;;1795288;78;20929;-60
2021/12/21 07:20:33;;;;;;;2.70;1.50;;;;;;;;;;1805327;78;21575;-59
2021/12/21 07:22:59;;;;;;;1.75;0.98;;;;;;;;;;1783795;80;21529;-59
2021/12/21 07:25:27;;;;;;;1.00;0.78;;;;;;;;;;1805210;78;20842;-59
2021/12/21 07:27:53;;;;;;;1.35;0.95;;;;;;;;;;1803998;78;20851;-59
2021/12/21 07:30:19;;;;;;;2.47;0.85;;;;;;;;;;1808900;78;20890;-59
2021/12/21 07:32:46;;;;;;;2.60;1.15;;;;;;;;;;1805281;78;21062;-60
2021/12/21 07:35:12;;;;;;;2.25;1.40;;;;;;;;;;1799286;78;21005;-60
2021/12/21 07:37:38;;;;;;;1.67;1.30;;;;;;;;;;1801406;78;21517;-58
2021/12/21 07:40:06;;;;;;;2.10;1.32;;;;;;;;;;1801511;78;21516;-59
2021/12/21 07:42:34;;;;;;;2.25;1.20;;;;;;;;;;1801800;78;21488;-59
2021/12/21 07:45:00;;;;;;;1.35;1.10;;;;;;;;;;1802612;78;21090;-59
2021/12/21 07:47:26;;;;;;;1.87;1.07;;;;;;;;;;1803337;78;21001;-60
2021/12/21 07:49:52;;;;;;;1.32;1.07;;;;;;;;;;1803195;78;20996;-59
2021/12/21 07:52:19;;;;;;;1.80;0.90;;;;;;;;;;1801058;78;21507;-59
2021/12/21 07:54:45;;;;;;;2.83;1.50;;;;;;;;;;1802416;78;20909;-59
2021/12/21 07:57:11;;;;;;;2.05;1.80;;;;;;;;;;1802627;78;21052;-59
2021/12/21 07:59:38;;;;;;;2.70;2.17;;;;;;;;;;1802093;78;20918;-59
2021/12/21 08:02:06;;;;;;;4.08;2.85;;;;;;;;;;1803023;78;20955;-59
2021/12/21 08:04:34;;;;;;;3.55;2.83;;;;;;;;;;1803293;78;21488;-59
2021/12/21 08:07:08;;;;;;;4.97;2.95;;;;;;;;;;1800692;78;21578;-59
2021/12/21 08:09:36;;;;;;;3.30;2.42;;;;;;;;;;1802567;78;21138;-59
2021/12/21 08:14:38;;;;;;;3.65;1.80;;;;;;;;;;1800824;78;21796;-59
2021/12/21 08:17:04;;;;;;;2.42;2.22;;;;;;;;;;1802670;78;20970;-59
2021/12/21 08:19:31;;;;;;;3.35;1.90;;;;;;;;;;1803515;78;21008;-59
2021/12/21 08:21:57;;;;;;;3.20;1.42;;;;;;;;;;1807356;78;21179;-59
2021/12/21 08:24:23;;;;;;;2.62;1.85;;;;;;;;;;1803798;78;20977;-59
2021/12/21 08:26:49;;;;;;;3.85;2.08;;;;;;;;;;1801830;78;20969;-60
2021/12/21 08:29:15;;;;;;;2.52;1.57;;;;;;;;;;1758379;80;20915;-59
2021/12/21 08:31:41;;;;;;;2.00;1.40;;;;;;;;;;1801501;78;21519;-60
2021/12/21 08:34:10;;;;;;;3.10;1.57;;;;;;;;;;1808134;78;21132;-60
2021/12/21 08:36:35;;;;;;;3.17;1.60;;;;;;;;;;1797915;78;20887;-60
2021/12/21 08:39:04;;;;;;;1.82;1.40;;;;;;;;;;1761593;80;21028;-59
2021/12/21 08:41:30;;;;;;;1.37;1.00;;;;;;;;;;1801525;78;21752;-60
2021/12/21 08:43:57;;;;;;;2.20;1.10;;;;;;;;;;1803852;78;20977;-60
2021/12/21 08:46:23;;;;;;;1.10;0.90;;;;;;;;;;1796308;78;21142;-60
2021/12/21 08:48:49;;;;;;;1.70;1.12;;;;;;;;;;1802897;78;20930;-60
2021/12/21 08:51:16;;;;;;;1.50;1.00;;;;;;;;;;1801768;78;20910;-59
2021/12/21 08:53:42;;;;;;;1.07;0.75;;;;;;;;;;1800682;78;21005;-59
2021/12/21 08:56:09;;;;;;;1.52;0.80;;;;;;;;;;1806687;78;21511;-60
2021/12/21 08:58:35;;;;;;;1.90;1.15;;;;;;;;;;1799336;78;21130;-60
2021/12/21 09:01:01;;;;;;;1.00;0.90;;;;;;;;;;1807010;78;20989;-61
2021/12/21 09:03:27;;;;;;;1.05;0.75;;;;;;;;;;1801658;78;21412;-59
2021/12/21 09:05:53;;;;;;;2.22;2.02;;;;;;;;;;1808010;78;21586;-59
2021/12/21 09:08:20;;;;;;;1.65;1.20;;;;;;;;;;1803363;78;20938;-59
2021/12/21 09:10:46;;;;;;;1.95;1.37;;;;;;;;;;1800554;78;21828;-59
2021/12/21 09:13:12;;;;;;;2.45;1.70;;;;;;;;;;1801887;78;21532;-59
2021/12/21 09:15:39;;;;;;;1.40;1.30;;;;;;;;;;1799149;78;20993;-59
2021/12/21 09:18:06;;;;;;;2.00;1.40;;;;;;;;;;1803863;78;20933;-59
2021/12/21 09:20:32;;;;;;;1.57;1.20;;;;;;;;;;1802149;78;20977;-59
2021/12/21 09:22:58;;;;;;;1.20;1.10;;;;;;;;;;1803446;78;21131;-59
2021/12/21 09:25:25;;;;;;;1.47;0.98;;;;;;;;;;1800527;78;20927;-59
2021/12/21 09:27:52;;;;;;;1.00;0.90;;;;;;;;;;1763078;80;20981;-59
2021/12/21 09:30:19;;;;;;;0.80;0.80;;;;;;;;;;1760597;80;21062;-59
2021/12/21 09:32:45;;;;;;;1.95;1.00;;;;;;;;;;1761155;81;21093;-60
2021/12/21 09:35:12;;;;;;;1.60;1.27;;;;;;;;;;1761841;80;21216;-60
2021/12/21 09:37:38;;;;;;;1.47;1.32;;;;;;;;;;1761734;80;21019;-62
2021/12/21 09:40:07;;;;;;;4.45;1.30;;;;;;;;;;1762101;80;21490;-60
2021/12/21 09:42:35;;;;;;;1.12;0.82;;;;;;;;;;1761235;80;20948;-60
2021/12/21 09:45:01;;;;;;;1.42;1.17;;;;;;;;;;1762546;80;20982;-60
2021/12/21 09:47:27;;;;;;;1.40;1.02;;;;;;;;;;1759408;80;21152;-59
2021/12/21 09:49:55;;;;;;;3.27;1.50;;;;;;;;;;1763104;80;21028;-59
2021/12/21 09:52:23;;;;;;;2.10;1.87;;;;;;;;;;1761825;80;20916;-59
2021/12/21 09:54:50;;;;;;;2.83;1.77;;;;;;;;;;1761481;80;20954;-59
2021/12/21 09:57:17;;;;;;;1.70;1.40;;;;;;;;;;1760163;80;20901;-60
2021/12/21 09:59:44;;;;;;;1.57;1.32;;;;;;;;;;1762088;81;21182;-60
2021/12/21 10:02:10;;;;;;;2.35;1.50;;;;;;;;;;1767031;80;20921;-59
2021/12/21 10:04:48;;;;;;;2.20;2.00;;;;;;;;;;1766620;80;21456;-59
2021/12/21 10:07:15;;;;;;;2.27;1.60;;;;;;;;;;1763616;80;20938;-59
2021/12/21 10:09:43;;;;;;;1.95;1.37;;;;;;;;;;1767297;81;20981;-59
2021/12/21 10:12:28;;;;;;;2.25;1.75;;;;;;;;;;1760279;80;21182;-59
2021/12/21 10:15:15;;;;;;;2.75;1.95;;;;;;;;;;1742511;80;20954;-60
2021/12/21 10:17:54;;;;;;;2.67;1.80;;;;;;;;;;1761065;80;20934;-59
2021/12/21 10:20:39;;;;;;;2.42;2.00;;;;;;;;;;1762060;80;21037;-59
2021/12/21 10:23:20;;;;;;;3.52;2.08;;;;;;;;;;1759556;80;21012;-59
2021/12/21 10:25:59;;;;;;;2.22;2.02;;;;;;;;;;1762975;80;21137;-57
2021/12/21 10:28:39;;;;;;;3.62;2.70;;;;;;;;;;1743284;81;21533;-59
2021/12/21 10:31:10;;;;;;;5.05;3.50;;;;;;;;;;1770677;79;20973;-68
2021/12/21 10:33:37;;;;;;;4.00;3.22;;;;;;;;;;1770247;79;21457;-60
2021/12/21 10:36:06;;;;;;;5.33;3.52;;;;;;;;;;1735804;81;20918;-59
2021/12/21 10:38:37;;;;;;;4.85;3.67;;;;;;;;;;1739933;81;21622;-61
2021/12/21 10:41:10;;;;;;;4.78;3.33;;;;;;;;;;1740987;81;20924;-63
2021/12/21 10:43:36;;;;;;;5.45;3.62;;;;;;;;;;1765945;80;21424;-62
2021/12/21 10:46:03;;;;;;;5.85;3.52;;;;;;;;;;1738872;81;20916;-61
2021/12/21 10:48:30;;;;;;;5.03;3.27;;;;;;;;;;1741145;81;21498;-63
2021/12/21 10:50:56;;;;;;;3.45;2.47;;;;;;;;;;1739706;81;21156;-60
2021/12/21 10:53:25;;;;;;;4.55;3.15;;;;;;;;;;1772520;79;21054;-60
2021/12/21 10:56:04;;;;;;;3.12;2.37;;;;;;;;;;1772709;80;21042;-62
2021/12/21 10:58:34;;;;;;;5.53;2.72;;;;;;;;;;1773792;80;20898;-61
2021/12/21 11:01:02;;;;;;;5.08;3.47;;;;;;;;;;1744385;80;21055;-63
2021/12/21 11:03:31;;;;;;;5.03;4.05;;;;;;;;;;1769642;80;21268;-62
2021/12/21 11:06:14;;;;;;;6.67;5.17;;;;;;;;;;1751154;81;20991;-62
2021/12/21 11:08:41;;;;;;;7.10;5.30;;;;;;;;;;1747352;81;20888;-61
2021/12/21 11:11:30;;;;;;;7.45;4.95;;;;;;;;;;1743613;81;20991;-61
2021/12/21 11:14:03;;;;;;;5.78;4.20;;;;;;;;;;1771124;80;21042;-63
2021/12/21 11:16:36;;;;;;;4.33;3.08;;;;;;;;;;1768319;79;21210;-62
2021/12/21 11:19:02;;;;;;;2.90;1.98;;;;;;;;;;1778857;79;20953;-63
2021/12/21 11:21:30;;;;;;;3.40;2.27;;;;;;;;;;1767026;80;20970;-61
2021/12/21 11:23:59;;;;;;;2.98;2.22;;;;;;;;;;1743903;81;21500;-61
2021/12/21 11:26:25;;;;;;;3.12;2.25;;;;;;;;;;1743543;81;21092;-62
2021/12/21 11:28:51;;;;;;;2.83;2.33;;;;;;;;;;1797720;78;21140;-61
2021/12/21 11:31:18;;;;;;;3.42;1.90;;;;;;;;;;1708580;83;21001;-61
2021/12/21 11:33:45;;;;;;;2.35;1.50;;;;;;;;;;1797234;78;20886;-61
2021/12/21 11:38:57;;;;;;;2.05;1.65;;;;;;;;;;1808181;78;20981;-62
2021/12/21 11:41:24;;;;;;;2.70;1.67;;;;;;;;;;1770216;80;21842;-61
2021/12/21 11:44:01;;;;;;;4.53;2.02;;;;;;;;;;1807343;78;20962;-62
2021/12/21 11:46:38;;;;;;;2.27;1.70;;;;;;;;;;1812600;78;20976;-63
2021/12/21 11:49:06;;;;;;;;;;;;;;;;;;1799661;78;20974;-63
2021/12/21 11:51:32;;;;;;;2.27;1.80;;;;;;;;;;1805294;78;20453;-62
2021/12/21 11:53:58;;;;;;;6.20;2.65;;;;;;;;;;1818921;78;21155;-63
2021/12/21 11:56:26;;;;;;;2.62;1.67;;;;;;;;;;1807704;78;20898;-63
2021/12/21 11:58:54;;;;;;;2.87;2.17;;;;;;;;;;1806278;78;20969;-62
2021/12/21 12:01:23;;;;;;;2.15;1.72;;;;;;;;;;1806156;78;21536;-62
2021/12/21 12:04:01;;;;;;;2.12;1.75;;;;;;;;;;1815536;78;20958;-62
2021/12/21 12:06:44;;;;;;;4.20;2.47;;;;;;;;;;1803941;78;21156;-61
2021/12/21 12:09:10;;;;;;;4.85;2.50;;;;;;;;;;1767911;80;21484;-61
2021/12/21 12:11:39;;;;;;;3.20;2.40;;;;;;;;;;1760460;80;21005;-61
2021/12/21 12:14:13;;;;;;;3.30;2.40;;;;;;;;;;1825979;78;38867;-62
2021/12/21 12:16:42;;;;;;;3.37;2.10;;;;;;;;;;1797505;78;20961;-61
2021/12/21 12:19:11;;;;;;;3.47;2.58;;;;;;;;;;1808489;78;21104;-61
2021/12/21 12:21:37;;;;;;;3.25;2.60;;;;;;;;;;1795390;78;20909;-61
2021/12/21 12:24:05;;;;;;;4.03;2.17;;;;;;;;;;1814362;78;20846;-61
2021/12/21 12:26:38;;;;;;;2.67;2.45;;;;;;;;;;1806147;78;21512;-61
2021/12/21 12:29:14;;;;;;;3.45;2.52;;;;;;;;;;1792446;78;20847;-61
2021/12/21 12:31:41;;;;;;;;;;;;;;;;;;1805808;78;21164;-60
2021/12/21 12:34:07;;;;;;;;;;;;;;;;;;1811044;78;20094;-62
2021/12/21 12:36:36;;;;;;;1.92;1.75;;;;;;;;;;1802229;78;20103;-61
2021/12/21 12:39:03;;;;;;;2.33;1.90;;;;;;;;;;1798440;78;20965;-61
2021/12/21 12:41:29;;;;;;;2.62;2.15;;;;;;;;;;1810126;78;21476;-61
2021/12/21 12:43:57;;;;;;;2.95;2.37;;;;;;;;;;1808172;78;21924;-60
2021/12/21 12:46:25;;;;;;;4.53;3.17;;;;;;;;;;1800414;78;20831;-61
2021/12/21 12:48:51;;;;;;;4.62;2.90;;;;;;;;;;1809885;78;20969;-61
2021/12/21 12:51:30;;;;;;;4.03;2.90;;;;;;;;;;1809590;78;20938;-61
2021/12/21 12:53:56;;;;;;;4.62;3.15;;;;;;;;;;1799014;78;21080;-60
2021/12/21 12:56:22;;;;;;;5.55;3.25;;;;;;;;;;1806541;78;21143;-59
2021/12/21 12:59:03;;;;;;;5.83;3.92;;;;;;;;;;1806390;78;21499;-60
2021/12/21 13:01:31;;;;;;;5.40;3.08;;;;;;;;;;1810732;78;21577;-60
2021/12/21 13:03:59;;;;;;;4.58;2.95;;;;;;;;;;1809614;78;21012;-60
2021/12/21 13:06:29;;;;;;;4.67;2.98;;;;;;;;;;1806424;78;20870;-61
2021/12/21 13:08:56;;;;;;;5.67;3.02;;;;;;;;;;1817788;78;21171;-60
2021/12/21 13:11:24;;;;;;;3.83;2.92;;;;;;;;;;1808064;78;21519;-59
2021/12/21 13:13:51;;;;;;;7.83;2.92;;;;;;;;;;1806226;78;21495;-59
2021/12/21 13:16:22;;;;;;;5.92;3.83;;;;;;;;;;1808945;78;21074;-61
2021/12/21 13:18:53;;;;;;;4.33;3.12;;;;;;;;;;1813310;78;20926;-60
2021/12/21 13:21:32;;;;;;;4.83;3.17;;;;;;;;;;1807099;78;21114;-61
2021/12/21 13:24:13;;;;;;;4.08;2.90;;;;;;;;;;1807233;78;20948;-60
2021/12/21 13:26:47;;;;;;;4.12;2.90;;;;;;;;;;1804999;78;21464;-59
2021/12/21 13:29:16;;;;;;;4.03;2.67;;;;;;;;;;1810737;78;21472;-59
2021/12/21 13:31:44;;;;;;;7.17;4.22;;;;;;;;;;1770518;80;20946;-58
2021/12/21 13:34:10;;;;;;;3.05;2.67;;;;;;;;;;1806865;78;21159;-60
2021/12/21 13:36:43;;;;;;;4.15;2.83;;;;;;;;;;1815065;78;20962;-60
2021/12/21 13:39:28;;;;;;;5.47;3.90;;;;;;;;;;1811501;78;20886;-60
2021/12/21 13:42:01;;;;;;;6.42;4.30;;;;;;;;;;1809338;78;20996;-60
2021/12/21 13:44:36;;;;;;;9.00;5.00;;;;;;;;;;1803600;78;21389;-59
2021/12/21 13:47:04;;;;;;;6.65;4.47;;;;;;;;;;1792450;78;21136;-60
2021/12/21 13:49:30;;;;;;;8.30;4.78;;;;;;;;;;1806198;78;21047;-59
2021/12/21 13:51:57;;;;;;;6.75;4.22;;;;;;;;;;1776202;80;20954;-59
2021/12/21 13:54:25;;;;;;;9.53;4.70;;;;;;;;;;1800633;78;20933;-59
2021/12/21 13:56:51;;;;;;;6.50;4.70;;;;;;;;;;1802621;78;20992;-60
2021/12/21 13:59:18;;;;;;;10.98;6.42;;;;;;;;;;1802810;78;21805;-60
2021/12/21 14:01:46;;;;;;;9.03;6.00;;;;;;;;;;1796951;78;20930;-60
2021/12/21 14:04:15;;;;;;;9.68;6.33;;;;;;;;;;1761393;80;20918;-59
2021/12/21 14:06:41;;;;;;;10.68;5.80;;;;;;;;;;1802440;78;21024;-60
2021/12/21 14:09:10;;;;;;;7.67;5.35;;;;;;;;;;1799076;78;20883;-59
2021/12/21 14:11:39;;;;;;;6.67;4.62;;;;;;;;;;1800090;78;21171;-60
2021/12/21 14:14:15;;;;;;;7.35;4.05;;;;;;;;;;1799828;78;20912;-60
2021/12/21 14:16:44;;;;;;;9.85;6.17;;;;;;;;;;1795405;78;20977;-60
2021/12/21 14:19:22;;;;;;;15.80;7.28;;;;;;;;;;1791355;78;21468;-60
2021/12/21 14:21:51;;;;;;;16.42;6.87;;;;;;;;;;1812779;78;20949;-59
2021/12/21 14:24:20;;;;;;;29.60;7.62;;;;;;;;;;1804730;78;21850;-61
2021/12/21 14:26:49;;;;;;;10.50;7.35;;;;;;;;;;1818418;78;20965;-58
2021/12/21 14:29:17;;;;;;;9.15;6.05;;;;;;;;;;1764487;80;20930;-58
2021/12/21 14:31:52;;;;;;;9.78;6.10;;;;;;;;;;1732447;82;21075;-61
2021/12/21 14:34:27;;;;;;;10.00;6.53;;;;;;;;;;1728910;82;21033;-59
2021/12/21 14:36:53;;;;;;;12.78;7.37;;;;;;;;;;1731422;82;21150;-60
2021/12/21 14:39:23;;;;;;;10.85;7.72;;;;;;;;;;1723410;82;20943;-61
2021/12/21 14:41:51;;;;;;;14.85;8.98;;;;;;;;;;1732566;82;20977;-59
2021/12/21 14:44:24;;;;;;;22.48;8.75;;;;;;;;;;1733635;82;21058;-59
2021/12/21 14:46:56;;;;;;;16.30;8.43;;;;;;;;;;1760761;80;20946;-60
2021/12/21 14:49:28;;;;;;;11.45;6.40;;;;;;;;;;1735084;82;21145;-60
2021/12/21 14:51:59;;;;;;;8.98;5.42;;;;;;;;;;1766373;80;21106;-60
2021/12/21 14:54:31;;;;;;;9.53;5.75;;;;;;;;;;1726882;81;21478;-60
2021/12/21 14:57:09;;;;;;;8.93;6.20;;;;;;;;;;1737703;81;21045;-60
2021/12/21 14:59:36;;;;;;;11.75;6.55;;;;;;;;;;1729028;82;21046;-61
2021/12/21 15:02:09;;;;;;;7.85;5.22;;;;;;;;;;1727845;82;21061;-61
2021/12/21 15:05:07;;;;;;;10.75;6.33;;;;;;;;;;1763609;80;20887;-60
2021/12/21 15:07:52;;;;;;;12.30;7.12;;;;;;;;;;1766536;80;20954;-61
2021/12/21 15:10:19;;;;;;;12.73;7.33;;;;;;;;;;1763494;80;21587;-60
2021/12/21 15:12:46;;;;;;;19.42;6.55;;;;;;;;;;1762653;81;21536;-62
2021/12/21 15:15:14;;;;;;;10.95;6.90;;;;;;;;;;1767520;80;21108;-60
2021/12/21 15:17:41;;;;;;;10.48;6.53;;;;;;;;;;1763548;81;21081;-60
2021/12/21 15:20:08;;;;;;;12.65;7.15;;;;;;;;;;1761545;80;20939;-60
2021/12/21 15:22:36;;;;;;;10.20;6.30;;;;;;;;;;1759419;81;20990;-60
2021/12/21 15:25:03;;;;;;;7.67;5.90;;;;;;;;;;1720709;83;20998;-60
2021/12/21 15:27:29;;;;;;;8.63;5.67;;;;;;;;;;1753632;80;21040;-60
2021/12/21 15:29:56;;;;;;;8.45;4.97;;;;;;;;;;1720351;82;21512;-61
2021/12/21 15:32:22;;;;;;;9.30;5.47;;;;;;;;;;1718406;83;21488;-60
2021/12/21 15:34:48;;;;;;;10.15;5.47;;;;;;;;;;1711142;83;20994;-59
2021/12/21 15:37:14;;;;;;;10.08;5.85;;;;;;;;;;1743451;81;20885;-60
2021/12/21 15:39:41;;;;;;;7.30;4.83;;;;;;;;;;1705896;83;21559;-60
2021/12/21 15:42:14;;;;;;;7.17;4.60;;;;;;;;;;1741002;81;20922;-60
2021/12/21 15:44:46;;;;;;;8.48;5.12;;;;;;;;;;1719890;82;20994;-61
2021/12/21 15:47:13;;;;;;;9.28;4.37;;;;;;;;;;1714666;82;21036;-60
2021/12/21 15:49:39;;;;;;;10.78;5.55;;;;;;;;;;1720789;82;20936;-60
2021/12/21 15:52:06;;;;;;;8.35;4.92;;;;;;;;;;1717484;82;21445;-60